Time;durP1;ratioP1;P1;durP2;ratioP2;P2;SDS_P1;SDS_P2;PMS_P1;PMS_P2;Temp;Humidity;BMP_temperature;BMP_pressure;BME280_temperature;BME280_humidity;BME280_pressure;Samples;Min_cycle;Max_cycle;Signal;HPM_P1;HPM_P2
2022/03/29 00:00:48;;;;;;;25.23;24.20;;;21.10;57.50;;;;;;5076434;28;20451;-47
2022/03/29 00:03:15;;;;;;;25.47;24.47;;;21.10;57.60;;;;;;5073021;28;20861;-50
2022/03/29 00:05:43;;;;;;;25.40;24.47;;;21.10;57.60;;;;;;5072509;28;20451;-48
2022/03/29 00:08:10;;;;;;;27.50;26.10;;;21.00;58.10;;;;;;5072963;28;20455;-49
2022/03/29 00:10:37;;;;;;;24.97;24.07;;;21.00;57.70;;;;;;5072856;28;20451;-50
2022/03/29 00:13:04;;;;;;;24.63;23.73;;;21.00;57.80;;;;;;5072992;28;20852;-51
2022/03/29 00:15:30;;;;;;;25.30;24.20;;;21.00;57.80;;;;;;5072693;28;20447;-48
2022/03/29 00:17:57;;;;;;;24.47;23.57;;;21.00;57.90;;;;;;5072615;28;20447;-47
2022/03/29 00:20:24;;;;;;;25.27;24.37;;;21.00;57.80;;;;;;5072682;28;20977;-48
2022/03/29 00:22:52;;;;;;;25.40;24.20;;;21.00;57.80;;;;;;5072316;28;20475;-47
2022/03/29 00:25:20;;;;;;;24.93;23.90;;;21.00;57.80;;;;;;5072409;28;20451;-49
2022/03/29 00:27:48;;;;;;;24.93;23.90;;;20.90;57.80;;;;;;5072585;28;20826;-50
2022/03/29 00:30:16;;;;;;;26.90;25.70;;;20.90;57.90;;;;;;5072549;28;20454;-47
2022/03/29 00:32:44;;;;;;;24.80;23.80;;;20.90;57.90;;;;;;5072496;28;21036;-47
2022/03/29 00:35:11;;;;;;;25.30;24.30;;;20.90;57.90;;;;;;5072271;28;20455;-47
2022/03/29 00:37:38;;;;;;;24.47;23.47;;;20.80;57.90;;;;;;5072301;28;20780;-48
2022/03/29 00:40:08;;;;;;;25.70;24.70;;;20.80;57.90;;;;;;5072378;28;20447;-49
2022/03/29 00:42:35;;;;;;;26.60;25.60;;;20.80;57.90;;;;;;5072502;28;20490;-49
2022/03/29 00:45:02;;;;;;;25.30;24.30;;;20.90;58.00;;;;;;5072348;28;20452;-53
2022/03/29 00:47:29;;;;;;;24.73;23.73;;;20.80;57.90;;;;;;5071844;28;20439;-49
2022/03/29 00:49:56;;;;;;;25.93;24.83;;;20.80;58.00;;;;;;5071795;28;20883;-48
2022/03/29 00:52:24;;;;;;;26.67;25.47;;;20.90;58.00;;;;;;5072278;28;20842;-50
2022/03/29 00:54:51;;;;;;;26.97;25.87;;;20.80;57.90;;;;;;5072036;28;20447;-48
2022/03/29 00:57:19;;;;;;;27.20;26.20;;;20.80;58.00;;;;;;5071805;28;20439;-49
2022/03/29 00:59:46;;;;;;;26.53;25.53;;;20.80;58.10;;;;;;5071828;28;20451;-49
2022/03/29 01:02:13;;;;;;;27.60;26.50;;;20.80;58.10;;;;;;5071752;28;20541;-50
2022/03/29 01:04:40;;;;;;;26.70;25.67;;;20.80;58.10;;;;;;5071990;28;20454;-48
2022/03/29 01:07:07;;;;;;;25.97;24.87;;;20.80;58.10;;;;;;5071631;28;20447;-48
2022/03/29 01:09:35;;;;;;;24.97;23.97;;;20.80;58.00;;;;;;5071832;28;20451;-48
2022/03/29 01:12:02;;;;;;;25.03;24.03;;;20.80;58.00;;;;;;5071815;28;20986;-48
2022/03/29 01:14:31;;;;;;;24.83;23.83;;;20.80;58.00;;;;;;5071831;28;20454;-49
2022/03/29 01:19:43;;;;;;;24.93;23.93;;;20.80;58.00;;;;;;5071287;28;20438;-48
2022/03/29 01:22:13;;;;;;;25.50;24.30;;;20.80;58.00;;;;;;5071618;28;20479;-47
2022/03/29 01:24:42;;;;;;;24.20;23.30;;;20.80;58.00;;;;;;5071652;28;20986;-49
2022/03/29 01:27:09;;;;;;;26.67;25.53;;;20.80;58.00;;;;;;5071497;28;20918;-51
2022/03/29 01:29:39;;;;;;;25.77;24.60;;;20.80;58.00;;;;;;5071229;28;20448;-48
2022/03/29 01:32:09;;;;;;;25.80;24.80;;;20.80;58.00;;;;;;5071146;28;20466;-48
2022/03/29 01:34:38;;;;;;;25.70;24.60;;;20.80;58.00;;;;;;5071565;28;20444;-53
2022/03/29 01:37:05;;;;;;;25.40;24.40;;;20.80;58.00;;;;;;5071034;28;20501;-50
2022/03/29 01:39:34;;;;;;;25.67;24.67;;;20.80;58.00;;;;;;5071295;28;20443;-48
2022/03/29 01:42:01;;;;;;;25.90;24.80;;;20.80;58.00;;;;;;5071404;28;20854;-50
2022/03/29 01:44:28;;;;;;;26.37;25.37;;;20.80;58.00;;;;;;5071435;28;20451;-50
2022/03/29 01:46:54;;;;;;;27.03;25.80;;;20.70;57.90;;;;;;5071239;28;20448;-51
2022/03/29 01:49:22;;;;;;;29.27;28.07;;;20.70;58.00;;;;;;5071306;28;20450;-53
2022/03/29 01:51:49;;;;;;;28.57;27.47;;;20.70;58.00;;;;;;5071232;28;20482;-50
2022/03/29 01:54:16;;;;;;;27.27;25.90;;;20.70;58.00;;;;;;5071240;28;20448;-51
2022/03/29 01:56:44;;;;;;;27.40;26.30;;;20.70;58.00;;;;;;5071389;28;20445;-48
2022/03/29 01:59:12;;;;;;;27.50;26.50;;;20.70;58.00;;;;;;5071378;28;20455;-48
2022/03/29 02:01:40;;;;;;;27.77;26.60;;;20.70;58.00;;;;;;5071195;28;20517;-48
2022/03/29 02:04:08;;;;;;;30.10;28.90;;;20.70;58.00;;;;;;5071380;28;20451;-48
2022/03/29 02:06:35;;;;;;;28.53;27.23;;;20.70;58.00;;;;;;5071110;28;20443;-49
2022/03/29 02:09:04;;;;;;;29.00;27.80;;;20.60;58.00;;;;;;5071224;28;20455;-48
2022/03/29 02:11:31;;;;;;;27.40;26.40;;;20.60;58.10;;;;;;5071150;28;20470;-51
2022/03/29 02:13:59;;;;;;;28.47;27.37;;;20.60;58.00;;;;;;5071053;28;20946;-48
2022/03/29 02:16:26;;;;;;;30.47;29.27;;;20.60;58.10;;;;;;5070936;28;20458;-48
2022/03/29 02:18:53;;;;;;;29.20;28.10;;;20.50;58.10;;;;;;5071301;28;20522;-48
2022/03/29 02:21:20;;;;;;;29.50;28.40;;;20.50;58.20;;;;;;5071002;28;20447;-48
2022/03/29 02:23:47;;;;;;;29.93;28.83;;;20.50;58.30;;;;;;5071029;28;20479;-49
2022/03/29 02:26:14;;;;;;;27.47;26.47;;;20.50;58.30;;;;;;5070614;28;20994;-48
2022/03/29 02:28:40;;;;;;;28.80;27.70;;;20.50;58.80;;;;;;5071031;28;20443;-48
2022/03/29 02:31:10;;;;;;;28.73;27.53;;;20.50;58.30;;;;;;5070874;28;20454;-48
2022/03/29 02:33:36;;;;;;;29.60;28.50;;;20.50;58.40;;;;;;5070973;28;20810;-48
2022/03/29 02:36:04;;;;;;;29.43;28.33;;;20.50;58.40;;;;;;5070793;28;20443;-49
2022/03/29 02:38:30;;;;;;;28.90;27.80;;;20.50;58.40;;;;;;5070704;28;20444;-48
2022/03/29 02:40:58;;;;;;;29.93;28.83;;;20.40;58.50;;;;;;5072886;28;20454;-52
2022/03/29 02:43:26;;;;;;;29.83;28.63;;;20.40;58.40;;;;;;5074483;28;20487;-48
2022/03/29 02:45:53;;;;;;;30.00;28.80;;;20.50;58.40;;;;;;5074552;28;20443;-48
2022/03/29 02:48:21;;;;;;;31.57;30.30;;;20.40;58.30;;;;;;5074208;28;20460;-50
2022/03/29 02:50:48;;;;;;;29.60;28.50;;;20.50;58.40;;;;;;5074576;28;20443;-48
2022/03/29 02:53:15;;;;;;;29.50;28.30;;;20.50;58.40;;;;;;5074545;28;20850;-50
2022/03/29 02:55:43;;;;;;;30.10;28.90;;;20.40;58.30;;;;;;5074253;28;20446;-49
2022/03/29 02:58:11;;;;;;;28.33;27.33;;;20.40;58.40;;;;;;5074089;28;20439;-53
2022/03/29 03:00:38;;;;;;;30.40;29.20;;;20.40;58.50;;;;;;5074134;28;20454;-48
2022/03/29 03:03:06;;;;;;;30.77;29.57;;;20.40;58.50;;;;;;5074126;28;20496;-49
2022/03/29 03:05:34;;;;;;;30.47;29.20;;;20.40;58.70;;;;;;5074045;28;20945;-50
2022/03/29 03:08:02;;;;;;;32.10;30.80;;;20.40;58.60;;;;;;5074014;28;20439;-52
2022/03/29 03:10:30;;;;;;;27.83;26.73;;;20.40;58.60;;;;;;5073490;28;20451;-48
2022/03/29 03:12:57;;;;;;;31.03;29.83;;;20.40;58.60;;;;;;5074152;28;20517;-50
2022/03/29 03:15:25;;;;;;;32.80;31.50;;;20.40;58.60;;;;;;5073823;28;20508;-49
2022/03/29 03:17:52;;;;;;;31.33;30.13;;;20.40;58.50;;;;;;5074207;28;20960;-51
2022/03/29 03:20:21;;;;;;;28.70;27.60;;;20.40;58.60;;;;;;5073717;28;20950;-53
2022/03/29 03:22:50;;;;;;;30.60;29.50;;;20.40;58.50;;;;;;5073721;28;20487;-49
2022/03/29 03:25:17;;;;;;;31.10;29.90;;;20.40;58.50;;;;;;5073855;28;20923;-48
2022/03/29 03:27:44;;;;;;;28.57;27.47;;;20.40;58.50;;;;;;5073876;28;20444;-48
2022/03/29 03:30:13;;;;;;;30.00;28.77;;;20.40;58.60;;;;;;5073973;28;20443;-49
2022/03/29 03:32:40;;;;;;;28.80;27.80;;;20.40;58.50;;;;;;5073755;28;20458;-49
2022/03/29 03:35:07;;;;;;;29.00;27.90;;;20.40;58.50;;;;;;5073916;28;20443;-54
2022/03/29 03:37:34;;;;;;;30.60;29.30;;;20.40;58.40;;;;;;5073387;28;20459;-51
2022/03/29 03:40:03;;;;;;;30.87;29.40;;;20.40;59.00;;;;;;5073703;28;20524;-50
2022/03/29 03:42:30;;;;;;;31.30;30.00;;;20.40;58.50;;;;;;5073384;28;20486;-48
2022/03/29 03:44:58;;;;;;;30.63;29.43;;;20.40;58.30;;;;;;5073297;28;20450;-48
2022/03/29 03:47:25;;;;;;;29.53;28.33;;;20.40;58.50;;;;;;5073288;28;20882;-51
2022/03/29 03:49:51;;;;;;;29.60;28.50;;;20.40;58.50;;;;;;5073566;28;20443;-49
2022/03/29 03:52:18;;;;;;;30.40;29.27;;;20.40;58.40;;;;;;5072384;28;20981;-48
2022/03/29 03:54:45;;;;;;;31.43;30.23;;;20.40;58.40;;;;;;5073394;28;20524;-51
2022/03/29 03:57:14;;;;;;;29.90;28.70;;;20.40;58.50;;;;;;5072986;28;20452;-50
2022/03/29 03:59:40;;;;;;;31.37;30.17;;;20.30;58.50;;;;;;5073301;28;20946;-48
2022/03/29 04:02:07;;;;;;;30.10;29.00;;;20.30;58.50;;;;;;5073103;28;20472;-53
2022/03/29 04:04:34;;;;;;;31.13;29.83;;;20.30;58.40;;;;;;5072756;28;21049;-48
2022/03/29 04:07:00;;;;;;;30.83;29.63;;;20.40;58.40;;;;;;5072838;28;20459;-51
2022/03/29 04:09:28;;;;;;;31.40;30.10;;;20.40;58.40;;;;;;5073005;28;20444;-48
2022/03/29 04:11:54;;;;;;;30.40;29.17;;;20.40;58.40;;;;;;5072355;28;20887;-52
2022/03/29 04:14:22;;;;;;;29.80;28.67;;;20.30;58.30;;;;;;5072724;28;20439;-48
2022/03/29 04:16:49;;;;;;;28.93;27.73;;;20.40;58.30;;;;;;5072930;28;20447;-51
2022/03/29 04:19:16;;;;;;;29.60;28.40;;;20.30;58.20;;;;;;5072794;28;20813;-48
2022/03/29 04:21:43;;;;;;;29.53;28.33;;;20.40;58.40;;;;;;5072591;28;20459;-49
2022/03/29 04:24:10;;;;;;;29.67;28.47;;;20.40;58.20;;;;;;5072665;28;20506;-49
2022/03/29 04:26:36;;;;;;;28.57;27.37;;;20.40;58.20;;;;;;5072282;28;20448;-48
2022/03/29 04:29:03;;;;;;;28.57;27.47;;;20.40;58.20;;;;;;5072771;28;20444;-48
2022/03/29 04:31:31;;;;;;;30.70;29.50;;;20.30;58.20;;;;;;5072384;28;20471;-52
2022/03/29 04:33:59;;;;;;;30.70;29.50;;;20.30;58.30;;;;;;5072253;28;20806;-51
2022/03/29 04:36:26;;;;;;;30.10;29.00;;;20.30;58.30;;;;;;5072189;28;20498;-51
2022/03/29 04:38:53;;;;;;;29.50;28.27;;;20.30;58.40;;;;;;5072401;28;20450;-48
2022/03/29 04:41:21;;;;;;;28.13;26.93;;;20.30;58.60;;;;;;5072331;28;20630;-48
2022/03/29 04:43:48;;;;;;;29.07;27.80;;;20.20;58.80;;;;;;5072275;28;20483;-51
2022/03/29 04:46:15;;;;;;;29.43;28.23;;;20.20;58.90;;;;;;5071796;28;20448;-50
2022/03/29 04:48:43;;;;;;;29.07;27.77;;;20.20;59.10;;;;;;5072056;28;20451;-54
2022/03/29 04:51:10;;;;;;;30.00;28.80;;;20.20;59.20;;;;;;5072154;28;20861;-55
2022/03/29 04:53:37;;;;;;;29.13;27.93;;;20.20;59.20;;;;;;5072152;28;20439;-55
2022/03/29 04:56:05;;;;;;;27.63;26.63;;;20.20;59.20;;;;;;5072003;28;20454;-51
2022/03/29 04:58:32;;;;;;;28.90;27.60;;;20.20;59.10;;;;;;5071727;28;20513;-53
2022/03/29 05:00:59;;;;;;;30.27;28.90;;;20.20;59.20;;;;;;5072332;28;20450;-57
2022/03/29 05:03:26;;;;;;;29.80;28.40;;;20.20;59.20;;;;;;5071281;28;20484;-52
2022/03/29 05:05:54;;;;;;;30.33;29.13;;;20.20;59.40;;;;;;5071670;28;20786;-54
2022/03/29 05:08:21;;;;;;;29.60;28.30;;;20.20;59.40;;;;;;5071683;28;20529;-56
2022/03/29 05:10:48;;;;;;;29.50;27.97;;;20.20;59.60;;;;;;5071706;28;20448;-56
2022/03/29 05:13:16;;;;;;;28.93;27.30;;;20.20;59.80;;;;;;5071787;28;20458;-51
2022/03/29 05:15:43;;;;;;;31.87;30.27;;;20.20;60.20;;;;;;5071265;28;20447;-55
2022/03/29 05:18:10;;;;;;;34.40;32.60;;;20.20;61.50;;;;;;5071168;28;20450;-55
2022/03/29 05:20:37;;;;;;;35.80;33.60;;;20.20;66.30;;;;;;5071230;28;20444;-54
2022/03/29 05:23:06;;;;;;;34.97;32.47;;;20.20;70.80;;;;;;5071464;28;20475;-57
2022/03/29 05:25:34;;;;;;;35.70;33.67;;;20.20;72.50;;;;;;5071548;28;20473;-54
2022/03/29 05:28:01;;;;;;;34.50;32.40;;;20.20;72.10;;;;;;5071540;28;20451;-55
2022/03/29 05:30:28;;;;;;;36.07;33.67;;;20.20;71.60;;;;;;5071502;28;20452;-54
2022/03/29 05:32:57;;;;;;;34.33;32.33;;;20.20;70.80;;;;;;5071465;28;20478;-53
2022/03/29 05:35:29;;;;;;;32.93;31.10;;;20.20;69.90;;;;;;5071325;28;20543;-51
2022/03/29 05:37:56;;;;;;;32.47;30.50;;;20.20;69.50;;;;;;5071566;28;20916;-53
2022/03/29 05:40:26;;;;;;;30.53;28.87;;;20.20;69.40;;;;;;5071727;28;20443;-56
2022/03/29 05:42:53;;;;;;;29.83;28.10;;;20.20;69.00;;;;;;5071164;28;20467;-54
2022/03/29 05:45:20;;;;;;;30.87;29.27;;;20.20;68.70;;;;;;5071407;28;20962;-52
2022/03/29 05:50:32;;;;;;;31.87;30.00;;;20.20;68.00;;;;;;5071528;28;20549;-50
2022/03/29 05:53:00;;;;;;;34.47;32.77;;;20.20;67.50;;;;;;5080811;22;20993;-53
2022/03/29 05:55:28;;;;;;;32.37;30.20;;;20.20;67.10;;;;;;5046394;28;20450;-51
2022/03/29 05:57:55;;;;;;;30.67;28.60;;;20.20;66.70;;;;;;5053886;28;20444;-51
2022/03/29 06:00:23;;;;;;;28.90;27.57;;;20.20;66.40;;;;;;5054372;28;20862;-51
2022/03/29 06:02:50;;;;;;;30.60;28.47;;;20.20;66.10;;;;;;5054030;28;20524;-50
2022/03/29 06:05:17;;;;;;;29.37;27.57;;;20.20;66.60;;;;;;5053787;28;20463;-54
2022/03/29 06:07:44;;;;;;;29.50;27.93;;;20.20;65.50;;;;;;5054162;28;20448;-50
2022/03/29 06:10:11;;;;;;;30.50;28.80;;;20.20;65.10;;;;;;5053730;28;20440;-54
2022/03/29 06:12:39;;;;;;;29.53;28.03;;;20.30;65.00;;;;;;5053757;28;20518;-52
2022/03/29 06:15:08;;;;;;;29.33;27.83;;;20.30;64.70;;;;;;5054540;28;20452;-50
2022/03/29 06:17:35;;;;;;;30.30;28.50;;;20.30;64.30;;;;;;5058192;28;20516;-50
2022/03/29 06:20:03;;;;;;;27.80;26.33;;;20.30;64.00;;;;;;5058447;28;20491;-53
2022/03/29 06:22:30;;;;;;;29.33;27.00;;;20.30;63.80;;;;;;5057865;28;20519;-50
2022/03/29 06:24:58;;;;;;;27.43;26.13;;;20.30;64.30;;;;;;5057314;28;20487;-50
2022/03/29 06:27:25;;;;;;;27.63;26.23;;;20.30;63.20;;;;;;5056867;28;20459;-51
2022/03/29 06:29:56;;;;;;;27.77;26.47;;;20.30;63.20;;;;;;5057227;28;20457;-54
2022/03/29 06:32:23;;;;;;;29.30;27.90;;;20.30;63.10;;;;;;5057265;28;20550;-54
2022/03/29 06:34:50;;;;;;;28.20;26.50;;;20.30;63.00;;;;;;5057288;28;20441;-49
2022/03/29 06:37:17;;;;;;;26.93;25.53;;;20.30;62.80;;;;;;5058016;28;20502;-49
2022/03/29 06:39:44;;;;;;;27.13;25.73;;;20.30;62.60;;;;;;5057083;28;20486;-50
2022/03/29 06:42:11;;;;;;;26.23;24.87;;;20.30;62.30;;;;;;5057021;28;20468;-48
2022/03/29 06:44:39;;;;;;;27.30;26.10;;;20.30;62.00;;;;;;5056986;28;20491;-51
2022/03/29 06:47:07;;;;;;;28.90;27.30;;;20.40;61.90;;;;;;5056695;28;20809;-52
2022/03/29 06:49:34;;;;;;;29.37;27.97;;;20.30;61.70;;;;;;5056870;28;20505;-47
2022/03/29 06:52:00;;;;;;;27.93;26.53;;;20.30;61.70;;;;;;5056863;28;20481;-52
2022/03/29 06:54:28;;;;;;;27.33;26.23;;;20.40;61.70;;;;;;5056957;28;20475;-52
2022/03/29 06:56:55;;;;;;;28.40;27.20;;;20.30;61.60;;;;;;5056987;28;20444;-51
2022/03/29 06:59:22;;;;;;;28.90;27.60;;;20.30;61.50;;;;;;5056911;28;20459;-48
2022/03/29 07:01:49;;;;;;;28.40;27.20;;;20.30;61.50;;;;;;5057108;28;20807;-51
2022/03/29 07:04:17;;;;;;;25.93;24.73;;;20.30;61.30;;;;;;5056643;28;20475;-52
2022/03/29 07:06:43;;;;;;;28.77;27.37;;;20.40;61.30;;;;;;5056456;28;20962;-50
2022/03/29 07:11:55;;;;;;;28.20;26.80;;;20.40;60.80;;;;;;5056337;28;20486;-50
2022/03/29 07:14:21;;;;;;;26.03;24.87;;;20.40;60.50;;;;;;5056604;28;20443;-51
2022/03/29 07:16:48;;;;;;;26.17;24.97;;;20.50;60.40;;;;;;5056171;28;20855;-52
2022/03/29 07:19:16;;;;;;;27.63;26.33;;;20.50;60.30;;;;;;5056649;28;20440;-50
2022/03/29 07:21:44;;;;;;;28.40;26.97;;;20.50;60.00;;;;;;5056499;28;20461;-52
2022/03/29 07:24:11;;;;;;;27.30;25.87;;;20.50;59.80;;;;;;5056670;28;20498;-50
2022/03/29 07:26:40;;;;;;;29.37;27.80;;;20.60;59.70;;;;;;5054819;28;20437;-51
2022/03/29 07:29:07;;;;;;;28.00;26.70;;;20.60;59.60;;;;;;5056339;28;20517;-50
2022/03/29 07:31:34;;;;;;;26.40;25.13;;;20.60;59.40;;;;;;5056025;28;20506;-51
2022/03/29 07:34:01;;;;;;;27.67;26.37;;;20.60;59.20;;;;;;5056466;28;21046;-48
2022/03/29 07:36:30;;;;;;;26.87;25.47;;;20.60;59.10;;;;;;5055715;28;20874;-50
2022/03/29 07:38:56;;;;;;;27.27;25.87;;;20.70;59.00;;;;;;5055614;28;20449;-53
2022/03/29 07:41:23;;;;;;;26.60;25.30;;;20.70;58.90;;;;;;5055894;28;20459;-49
2022/03/29 07:43:50;;;;;;;28.20;27.00;;;20.60;58.90;;;;;;5056372;28;20480;-57
2022/03/29 07:46:17;;;;;;;27.17;25.97;;;20.60;58.80;;;;;;5056195;28;20453;-54
2022/03/29 07:48:44;;;;;;;26.87;25.70;;;20.60;58.70;;;;;;5056165;28;20444;-49
2022/03/29 07:51:11;;;;;;;28.47;26.97;;;20.70;58.60;;;;;;5056427;28;20444;-51
2022/03/29 07:53:40;;;;;;;28.47;27.17;;;20.70;58.50;;;;;;5056101;28;20550;-50
2022/03/29 07:56:07;;;;;;;26.50;25.40;;;20.70;58.30;;;;;;5055997;28;20460;-51
2022/03/29 07:58:33;;;;;;;27.33;26.03;;;20.70;58.30;;;;;;5056195;28;20444;-47
2022/03/29 08:01:00;;;;;;;28.37;26.97;;;20.70;58.20;;;;;;5055318;28;20444;-50
2022/03/29 08:03:32;;;;;;;26.77;25.53;;;20.80;58.20;;;;;;5055618;28;20473;-49
2022/03/29 08:05:59;;;;;;;26.83;25.63;;;20.80;58.10;;;;;;5055421;28;20924;-50
2022/03/29 08:08:26;;;;;;;27.00;25.80;;;20.80;57.90;;;;;;5055736;28;20495;-48
2022/03/29 08:10:54;;;;;;;27.53;26.43;;;20.90;57.80;;;;;;5055806;28;20804;-50
2022/03/29 08:13:23;;;;;;;27.53;26.33;;;20.80;57.60;;;;;;5055522;28;20487;-51
2022/03/29 08:15:52;;;;;;;30.00;28.70;;;20.90;57.60;;;;;;5055059;28;20443;-50
2022/03/29 08:18:19;;;;;;;27.93;26.73;;;20.90;57.40;;;;;;5055066;28;20452;-50
2022/03/29 08:20:47;;;;;;;28.90;27.60;;;21.00;57.20;;;;;;5055134;28;20819;-51
2022/03/29 08:23:14;;;;;;;28.07;26.87;;;21.00;57.00;;;;;;5054977;28;20975;-50
2022/03/29 08:25:43;;;;;;;28.37;27.07;;;21.00;56.80;;;;;;5054776;28;20480;-50
2022/03/29 08:28:12;;;;;;;26.63;25.40;;;21.10;56.70;;;;;;5054902;28;20448;-52
2022/03/29 08:30:39;;;;;;;25.70;24.60;;;21.10;56.60;;;;;;5054884;28;20444;-48
2022/03/29 08:33:07;;;;;;;27.57;26.37;;;21.10;56.40;;;;;;5054370;28;21006;-48
2022/03/29 08:35:37;;;;;;;26.87;25.77;;;21.20;56.30;;;;;;5054208;28;20448;-51
2022/03/29 08:38:04;;;;;;;26.70;25.60;;;21.20;56.20;;;;;;5054459;28;20852;-50
2022/03/29 08:40:31;;;;;;;28.80;27.50;;;21.30;56.10;;;;;;5054952;28;20816;-48
2022/03/29 08:43:00;;;;;;;27.73;26.53;;;21.30;55.90;;;;;;5054705;28;20471;-50
2022/03/29 08:45:30;;;;;;;28.13;26.90;;;21.30;55.70;;;;;;5054255;28;20498;-50
2022/03/29 08:47:59;;;;;;;26.93;25.73;;;21.40;55.60;;;;;;5054453;28;20456;-50
2022/03/29 08:50:29;;;;;;;26.87;25.67;;;21.40;55.50;;;;;;5054425;28;20448;-49
2022/03/29 08:52:56;;;;;;;25.90;24.80;;;21.40;55.40;;;;;;5054143;28;20483;-50
2022/03/29 08:55:23;;;;;;;26.87;25.77;;;21.40;55.30;;;;;;5054388;28;20822;-52
2022/03/29 08:57:54;;;;;;;27.87;26.67;;;21.40;55.30;;;;;;5054751;28;20440;-50
2022/03/29 09:00:23;;;;;;;26.70;25.60;;;21.40;55.20;;;;;;5054285;28;20452;-48
2022/03/29 09:02:52;;;;;;;26.77;25.60;;;21.40;55.00;;;;;;5054143;28;20465;-47
2022/03/29 09:05:22;;;;;;;27.60;26.30;;;21.50;55.50;;;;;;5053705;28;20488;-48
2022/03/29 09:07:51;;;;;;;26.43;25.23;;;21.50;54.80;;;;;;5054299;28;20440;-51
2022/03/29 09:10:19;;;;;;;27.07;25.97;;;21.60;54.70;;;;;;5053834;28;20539;-50
2022/03/29 09:12:46;;;;;;;27.20;26.00;;;21.60;55.10;;;;;;5053701;28;20468;-53
2022/03/29 09:15:13;;;;;;;27.07;25.97;;;21.70;54.40;;;;;;5053754;28;20433;-51
2022/03/29 09:17:41;;;;;;;27.47;26.30;;;21.70;54.20;;;;;;5054528;28;20476;-50
2022/03/29 09:20:12;;;;;;;27.80;26.70;;;21.80;54.10;;;;;;5054293;28;20452;-49
2022/03/29 09:22:42;;;;;;;28.87;27.67;;;21.80;53.90;;;;;;5054478;28;20464;-50
2022/03/29 09:25:11;;;;;;;28.00;26.90;;;21.90;53.80;;;;;;5054340;28;20480;-50
2022/03/29 09:27:53;;;;;;;26.90;25.70;;;21.90;53.60;;;;;;5054076;28;20943;-51
2022/03/29 09:30:21;;;;;;;27.70;26.40;;;22.00;53.40;;;;;;5053248;28;20460;-49
2022/03/29 09:32:52;;;;;;;27.27;26.17;;;22.00;53.20;;;;;;5053505;28;20495;-51
2022/03/29 09:35:20;;;;;;;27.53;26.43;;;22.10;53.10;;;;;;5053631;28;20437;-47
2022/03/29 09:37:48;;;;;;;27.77;26.67;;;22.10;53.00;;;;;;5053964;28;20457;-50
2022/03/29 09:40:15;;;;;;;26.47;25.40;;;22.10;52.90;;;;;;5053733;28;20927;-52
2022/03/29 09:42:42;;;;;;;27.23;26.03;;;22.10;52.80;;;;;;5053488;28;20475;-49
2022/03/29 09:45:10;;;;;;;27.40;26.20;;;22.20;52.80;;;;;;5054856;28;20498;-55
2022/03/29 09:47:37;;;;;;;27.47;26.33;;;22.20;52.60;;;;;;5055719;28;20815;-53
2022/03/29 09:50:06;;;;;;;27.17;25.87;;;22.20;52.50;;;;;;5055182;28;20448;-53
2022/03/29 09:52:37;;;;;;;27.37;26.27;;;22.20;52.40;;;;;;5055277;28;20479;-52
2022/03/29 09:55:12;;;;;;;27.40;26.20;;;22.20;52.30;;;;;;5055199;28;20470;-55
2022/03/29 09:57:41;;;;;;;28.10;26.80;;;22.20;52.30;;;;;;5054397;28;20447;-53
2022/03/29 10:00:10;;;;;;;26.40;25.30;;;22.30;52.20;;;;;;5054074;28;20448;-51
2022/03/29 10:02:40;;;;;;;27.10;25.87;;;22.30;52.00;;;;;;5054530;28;20464;-50
2022/03/29 10:05:09;;;;;;;26.53;25.40;;;22.30;51.90;;;;;;5054876;28;20515;-48
2022/03/29 10:07:42;;;;;;;27.07;25.83;;;22.40;51.80;;;;;;5053592;28;20484;-50
2022/03/29 10:10:09;;;;;;;27.27;26.17;;;22.40;51.60;;;;;;5054063;28;20471;-50
2022/03/29 10:12:36;;;;;;;27.37;26.17;;;22.50;51.50;;;;;;5053720;28;20890;-50
2022/03/29 10:15:04;;;;;;;27.37;26.23;;;22.60;51.40;;;;;;5054146;28;20436;-49
2022/03/29 10:17:31;;;;;;;27.00;25.90;;;22.70;51.10;;;;;;5054090;28;20444;-53
2022/03/29 10:19:59;;;;;;;27.00;25.90;;;22.80;50.70;;;;;;5053435;28;20460;-53
2022/03/29 10:22:27;;;;;;;26.53;25.43;;;22.90;50.50;;;;;;5053655;28;20476;-52
2022/03/29 10:24:55;;;;;;;27.13;26.00;;;23.00;50.20;;;;;;5053487;28;20486;-52
2022/03/29 10:27:23;;;;;;;27.60;26.30;;;23.00;50.00;;;;;;5053126;28;20444;-49
2022/03/29 10:29:49;;;;;;;27.60;26.40;;;23.10;49.90;;;;;;5053510;28;20449;-50
2022/03/29 10:32:29;;;;;;;26.83;25.53;;;23.10;49.70;;;;;;5053387;28;20974;-51
2022/03/29 10:35:08;;;;;;;29.63;28.17;;;23.10;49.60;;;;;;5053265;28;20497;-52
2022/03/29 10:37:55;;;;;;;27.40;26.20;;;23.20;49.50;;;;;;5054032;28;20792;-51
2022/03/29 10:40:37;;;;;;;27.20;26.10;;;23.20;49.40;;;;;;5054387;28;20484;-51
2022/03/29 10:43:32;;;;;;;27.60;26.30;;;23.30;49.30;;;;;;5053919;28;20522;-51
2022/03/29 10:45:59;;;;;;;28.23;27.03;;;23.30;49.00;;;;;;5007023;28;20867;-51
2022/03/29 10:48:27;;;;;;;28.33;27.03;;;23.40;48.90;;;;;;5053608;28;20444;-50
2022/03/29 10:50:59;;;;;;;27.40;26.27;;;23.40;48.80;;;;;;5053431;28;20452;-50
2022/03/29 10:53:28;;;;;;;28.67;27.40;;;23.40;48.60;;;;;;5054078;28;20518;-52
2022/03/29 10:56:23;;;;;;;27.83;26.63;;;23.50;48.50;;;;;;5053950;28;20519;-51
2022/03/29 10:59:15;;;;;;;27.50;26.30;;;23.50;48.40;;;;;;5053332;28;20444;-50
2022/03/29 11:01:43;;;;;;;27.17;25.97;;;23.50;48.30;;;;;;5053795;28;20480;-51
2022/03/29 11:04:17;;;;;;;26.90;25.70;;;23.50;48.30;;;;;;5056948;28;20494;-51
2022/03/29 11:07:13;;;;;;;28.00;26.80;;;23.40;48.20;;;;;;5057159;28;20472;-55
2022/03/29 11:09:41;;;;;;;27.93;26.73;;;23.30;48.30;;;;;;5057595;28;20866;-49
2022/03/29 11:12:37;;;;;;;28.00;26.90;;;23.30;48.50;;;;;;5057121;28;20475;-50
2022/03/29 11:15:40;;;;;;;27.70;26.60;;;23.20;48.50;;;;;;5057154;28;20436;-50
2022/03/29 11:18:40;;;;;;;27.13;25.97;;;23.10;48.70;;;;;;5057174;28;20973;-50
2022/03/29 11:21:07;;;;;;;27.23;26.13;;;23.00;48.80;;;;;;5057166;28;20455;-48
2022/03/29 11:23:38;;;;;;;27.60;26.27;;;22.90;49.00;;;;;;5057005;28;20464;-51
2022/03/29 11:26:08;;;;;;;27.50;26.40;;;22.90;49.10;;;;;;5056800;28;20518;-49
2022/03/29 11:28:37;;;;;;;27.13;26.03;;;22.80;49.20;;;;;;5056639;28;21042;-49
2022/03/29 11:31:04;;;;;;;26.70;25.50;;;22.80;49.30;;;;;;5056601;28;20448;-50
2022/03/29 11:33:32;;;;;;;27.23;26.13;;;22.70;49.40;;;;;;5056006;28;20461;-52
2022/03/29 11:35:59;;;;;;;26.97;25.87;;;22.70;49.40;;;;;;5056917;28;20467;-47
2022/03/29 11:38:27;;;;;;;26.30;25.20;;;22.70;49.40;;;;;;5056386;28;20449;-50
2022/03/29 11:40:53;;;;;;;29.47;28.07;;;22.80;49.50;;;;;;5055834;28;20447;-49
2022/03/29 11:43:24;;;;;;;28.17;26.93;;;22.80;49.50;;;;;;5056495;28;20835;-52
2022/03/29 11:45:54;;;;;;;31.63;30.20;;;22.70;49.50;;;;;;5056246;28;20507;-50
2022/03/29 11:48:24;;;;;;;30.70;29.43;;;22.80;49.60;;;;;;5055807;28;20977;-50
2022/03/29 11:50:53;;;;;;;31.87;30.50;;;22.80;49.60;;;;;;5056102;28;20452;-53
2022/03/29 11:53:22;;;;;;;30.90;29.60;;;22.90;49.60;;;;;;5056577;28;20479;-50
2022/03/29 11:55:57;;;;;;;31.10;29.90;;;22.90;49.40;;;;;;5056241;28;20441;-50
2022/03/29 11:58:26;;;;;;;33.17;31.87;;;23.00;49.40;;;;;;5056641;28;20440;-48
2022/03/29 12:00:58;;;;;;;30.53;29.13;;;23.00;49.30;;;;;;5055686;28;20448;-50
2022/03/29 12:03:34;;;;;;;30.63;29.27;;;23.00;49.20;;;;;;5055783;28;20469;-50
2022/03/29 12:06:13;;;;;;;32.87;31.40;;;23.10;49.10;;;;;;5056119;28;20476;-50
2022/03/29 12:08:54;;;;;;;33.00;31.60;;;23.20;48.90;;;;;;5056228;28;20470;-51
2022/03/29 12:11:24;;;;;;;30.90;29.63;;;23.40;48.80;;;;;;5055571;28;20444;-50
2022/03/29 12:14:00;;;;;;;33.90;32.50;;;23.50;48.50;;;;;;5055176;28;20445;-51
2022/03/29 12:16:30;;;;;;;32.83;31.43;;;23.60;48.10;;;;;;5055027;28;20471;-49
2022/03/29 12:18:57;;;;;;;32.30;31.00;;;23.80;47.90;;;;;;5055686;28;20447;-49
2022/03/29 12:21:25;;;;;;;33.23;31.83;;;24.00;47.50;;;;;;5055507;28;20804;-53
2022/03/29 12:24:00;;;;;;;32.70;31.37;;;24.20;47.10;;;;;;5055782;28;20800;-53
2022/03/29 12:26:28;;;;;;;31.27;29.87;;;24.50;46.60;;;;;;5055617;28;20494;-51
2022/03/29 12:28:55;;;;;;;33.60;32.20;;;24.70;46.20;;;;;;5055642;28;20498;-51
2022/03/29 12:31:24;;;;;;;32.17;30.80;;;24.70;45.70;;;;;;5054834;28;20448;-50
2022/03/29 12:33:53;;;;;;;32.83;31.43;;;24.70;45.70;;;;;;5055110;28;20479;-54
2022/03/29 12:36:20;;;;;;;32.40;30.93;;;24.80;45.60;;;;;;5054790;28;20444;-50
2022/03/29 12:38:49;;;;;;;32.63;31.33;;;24.80;45.50;;;;;;5055353;28;20462;-50
2022/03/29 12:41:31;;;;;;;32.50;31.00;;;24.70;45.30;;;;;;5055349;28;20452;-50
2022/03/29 12:43:58;;;;;;;34.20;32.80;;;24.90;45.50;;;;;;5055581;28;20467;-53